createdAt,value
2023-05-07T00:01:31.092Z,13.15
2023-05-07T00:04:18.879Z,13.15
2023-05-07T00:07:06.774Z,13.11
2023-05-07T00:09:54.734Z,13.09
2023-05-07T00:12:44.207Z,13.04
2023-05-07T00:15:32.227Z,13.01
2023-05-07T00:18:22.113Z,13.00
2023-05-07T00:21:09.994Z,13.00
2023-05-07T00:23:57.953Z,13.00
2023-05-07T00:26:45.833Z,13.00
2023-05-07T00:29:35.172Z,12.98
2023-05-07T00:32:22.986Z,12.99
2023-05-07T00:35:11.512Z,12.98
2023-05-07T00:37:59.882Z,12.96
2023-05-07T00:40:47.920Z,12.95
2023-05-07T00:43:35.908Z,12.94
2023-05-07T00:46:25.783Z,12.93
2023-05-07T00:49:13.694Z,12.90
2023-05-07T00:52:01.659Z,12.90
2023-05-07T00:54:50.389Z,12.87
2023-05-07T00:57:39.372Z,12.85
2023-05-07T01:00:27.901Z,12.84
2023-05-07T01:03:17.560Z,12.81
2023-05-07T01:06:10.197Z,12.79
2023-05-07T01:08:58.663Z,12.76
2023-05-07T01:11:46.903Z,12.75
2023-05-07T01:14:35.079Z,12.75
2023-05-07T01:17:23.091Z,12.72
2023-05-07T01:20:13.911Z,12.70
2023-05-07T01:23:05.355Z,12.69
2023-05-07T01:25:56.884Z,12.69
2023-05-07T01:28:44.739Z,12.68
2023-05-07T01:31:34.102Z,12.64
2023-05-07T01:34:24.750Z,12.62
2023-05-07T01:37:12.683Z,12.59
2023-05-07T01:40:03.046Z,12.56
2023-05-07T01:42:50.947Z,12.54
2023-05-07T01:45:39.256Z,12.50
2023-05-07T01:48:28.043Z,12.47
2023-05-07T01:51:15.919Z,12.46
2023-05-07T01:54:03.940Z,12.42
2023-05-07T01:56:53.206Z,12.40
2023-05-07T01:59:41.469Z,12.38
2023-05-07T02:02:29.359Z,12.37
2023-05-07T02:05:17.450Z,12.35
2023-05-07T02:08:05.820Z,12.34
2023-05-07T02:10:54.953Z,12.30
2023-05-07T02:13:44.440Z,12.29
2023-05-07T02:16:32.383Z,12.28
2023-05-07T02:19:22.088Z,12.28
2023-05-07T02:22:10.165Z,12.26
2023-05-07T02:24:57.901Z,12.25
2023-05-07T02:27:45.942Z,12.24
2023-05-07T02:30:35.209Z,12.22
2023-05-07T02:33:22.843Z,12.20
2023-05-07T02:36:11.683Z,12.18
2023-05-07T02:39:01.813Z,12.16
2023-05-07T02:41:50.030Z,12.13
2023-05-07T02:44:38.069Z,12.10
2023-05-07T02:47:29.579Z,12.08
2023-05-07T02:50:17.458Z,12.06
2023-05-07T02:53:05.434Z,12.05
2023-05-07T02:55:53.423Z,12.02
2023-05-07T02:58:41.432Z,11.99
2023-05-07T03:01:29.466Z,11.94
2023-05-07T03:04:18.903Z,11.90
2023-05-07T03:07:07.016Z,11.87
2023-05-07T03:09:55.133Z,11.81
2023-05-07T03:12:42.921Z,11.79
2023-05-07T03:15:30.930Z,11.75
2023-05-07T03:18:19.189Z,11.70
2023-05-07T03:21:08.519Z,11.66
2023-05-07T03:23:56.354Z,11.63
2023-05-07T03:26:44.738Z,11.59
2023-05-07T03:29:32.883Z,11.55
2023-05-07T03:32:20.992Z,11.48
2023-05-07T03:35:09.200Z,11.45
2023-05-07T03:37:58.671Z,11.41
2023-05-07T03:40:46.532Z,11.36
2023-05-07T03:43:34.425Z,11.32
2023-05-07T03:46:22.266Z,11.26
2023-05-07T03:49:10.058Z,11.19
2023-05-07T03:51:58.228Z,11.14
2023-05-07T03:54:47.417Z,11.08
2023-05-07T03:57:35.529Z,11.06
2023-05-07T04:00:23.800Z,11.04
2023-05-07T04:03:12.110Z,11.02
2023-05-07T04:06:00.016Z,10.99
2023-05-07T04:08:47.971Z,10.97
2023-05-07T04:11:37.892Z,10.93
2023-05-07T04:14:25.524Z,10.91
2023-05-07T04:17:13.334Z,10.89
2023-05-07T04:20:01.113Z,10.85
2023-05-07T04:22:50.903Z,10.84
2023-05-07T04:25:38.829Z,10.83
2023-05-07T04:28:28.240Z,10.90
2023-05-07T04:31:16.375Z,10.89
2023-05-07T04:34:04.094Z,10.89
2023-05-07T04:36:52.063Z,10.90
2023-05-07T04:39:40.038Z,10.91
2023-05-07T04:42:27.987Z,11.05
2023-05-07T04:45:17.554Z,11.02
2023-05-07T04:48:05.775Z,11.05
2023-05-07T04:50:53.980Z,11.11
2023-05-07T04:53:42.433Z,11.29
2023-05-07T04:56:31.167Z,11.40
2023-05-07T04:59:19.219Z,11.46
2023-05-07T05:02:08.565Z,11.62
2023-05-07T05:04:56.526Z,11.68
2023-05-07T05:07:44.567Z,11.83
2023-05-07T05:10:32.563Z,11.98
2023-05-07T05:13:20.423Z,12.20
2023-05-07T05:16:08.777Z,12.33
2023-05-07T05:18:57.681Z,12.40
2023-05-07T05:21:45.619Z,12.57
2023-05-07T05:24:33.411Z,12.69
2023-05-07T05:27:20.967Z,12.79
2023-05-07T05:30:10.166Z,12.99
2023-05-07T05:32:58.325Z,13.12
2023-05-07T05:35:47.799Z,13.22
2023-05-07T05:38:35.608Z,13.30
2023-05-07T05:41:23.547Z,13.40
2023-05-07T05:44:11.333Z,13.55
2023-05-07T05:47:00.300Z,13.68
2023-05-07T05:49:48.116Z,13.76
2023-05-07T05:52:37.508Z,13.87
2023-05-07T05:55:25.711Z,13.95
2023-05-07T05:58:13.605Z,14.09
2023-05-07T06:01:03.583Z,14.19
2023-05-07T06:03:51.431Z,14.31
2023-05-07T06:06:39.470Z,14.44
2023-05-07T06:09:28.847Z,14.54
2023-05-07T06:12:16.859Z,14.67
2023-05-07T06:15:05.501Z,14.77
2023-05-07T06:17:53.208Z,14.90
2023-05-07T06:20:41.233Z,14.99
2023-05-07T06:23:29.782Z,15.09
2023-05-07T06:26:19.073Z,15.22
2023-05-07T06:29:07.112Z,15.36
2023-05-07T06:31:55.171Z,15.47
2023-05-07T06:34:43.830Z,15.61
2023-05-07T06:37:31.845Z,15.72
2023-05-07T06:40:19.997Z,15.78
2023-05-07T06:43:09.278Z,15.86
2023-05-07T06:45:57.356Z,16.03
2023-05-07T06:48:45.608Z,16.14
2023-05-07T06:51:33.575Z,16.25
2023-05-07T06:54:21.472Z,16.42
2023-05-07T06:57:09.389Z,16.53
2023-05-07T06:59:58.649Z,16.69
2023-05-07T07:02:46.510Z,16.80
2023-05-07T07:05:34.446Z,16.95
2023-05-07T07:08:23.136Z,17.07
2023-05-07T07:11:11.814Z,17.21
2023-05-07T07:13:59.934Z,17.37
2023-05-07T07:16:49.274Z,17.40
2023-05-07T07:19:37.471Z,17.50
2023-05-07T07:22:27.619Z,17.66
2023-05-07T07:25:15.562Z,17.87
2023-05-07T07:28:05.309Z,18.08
2023-05-07T07:30:53.418Z,18.22
2023-05-07T07:33:42.639Z,18.39
2023-05-07T07:36:38.948Z,18.44
2023-05-07T07:39:33.958Z,18.66
2023-05-07T07:42:21.814Z,18.88
2023-05-07T07:45:10.609Z,19.05
2023-05-07T07:47:58.299Z,19.22
2023-05-07T07:50:50.375Z,19.35
2023-05-07T07:53:38.030Z,19.49
2023-05-07T07:56:26.133Z,19.62
2023-05-07T07:59:14.862Z,19.75
2023-05-07T08:02:02.726Z,19.85
2023-05-07T08:04:50.629Z,19.97
2023-05-07T08:07:40.092Z,20.07
2023-05-07T08:10:28.325Z,20.19
2023-05-07T08:13:16.228Z,20.37
2023-05-07T08:16:04.561Z,20.45
2023-05-07T08:18:52.274Z,20.47
2023-05-07T08:21:42.070Z,20.66
2023-05-07T08:24:31.359Z,20.87
2023-05-07T08:27:19.063Z,20.85
2023-05-07T08:30:08.093Z,21.01
2023-05-07T08:32:56.461Z,20.88
2023-05-07T08:35:44.547Z,20.90
2023-05-07T08:38:32.223Z,20.53
2023-05-07T08:41:21.899Z,20.63
2023-05-07T08:44:15.512Z,21.10
2023-05-07T08:47:04.420Z,21.04
2023-05-07T08:49:53.288Z,20.91
2023-05-07T08:52:42.457Z,21.45
2023-05-07T08:55:31.792Z,22.04
2023-05-07T08:58:21.245Z,22.21
2023-05-07T09:01:11.742Z,22.47
2023-05-07T09:04:00.508Z,22.76
2023-05-07T09:07:36.593Z,23.01
2023-05-07T09:10:24.906Z,23.20
2023-05-07T09:13:15.892Z,23.70
2023-05-07T09:16:14.983Z,23.76
2023-05-07T09:19:03.117Z,24.27
2023-05-07T09:21:51.724Z,23.68
2023-05-07T09:24:40.659Z,23.37
2023-05-07T09:27:29.133Z,23.88
2023-05-07T09:30:17.184Z,24.39
2023-05-07T09:33:07.550Z,24.80
2023-05-07T09:35:55.954Z,24.60
2023-05-07T09:38:44.650Z,25.46
2023-05-07T09:41:34.773Z,25.19
2023-05-07T09:44:23.429Z,25.21
2023-05-07T09:47:12.369Z,25.52
2023-05-07T09:50:08.522Z,26.14
2023-05-07T09:52:57.727Z,26.66
2023-05-07T09:55:47.354Z,27.31
2023-05-07T09:58:40.186Z,27.17
2023-05-07T10:01:29.098Z,26.01
2023-05-07T10:04:18.228Z,27.04
2023-05-07T10:07:09.237Z,28.06
2023-05-07T10:10:03.011Z,27.70
2023-05-07T10:12:52.479Z,27.93
2023-05-07T10:15:40.434Z,28.54
2023-05-07T10:18:31.005Z,28.00
2023-05-07T10:21:20.479Z,28.68
2023-05-07T10:24:15.667Z,29.21
2023-05-07T10:27:06.529Z,29.00
2023-05-07T10:30:07.706Z,29.52
2023-05-07T10:32:59.045Z,29.71
2023-05-07T10:35:49.156Z,30.20
2023-05-07T10:38:36.815Z,29.83
2023-05-07T10:41:26.042Z,29.86
2023-05-07T10:44:14.084Z,29.81
2023-05-07T10:47:10.634Z,30.43
2023-05-07T10:50:32.111Z,30.62
2023-05-07T10:53:30.519Z,31.23
2023-05-07T10:56:29.918Z,31.68
2023-05-07T10:59:42.714Z,31.63
2023-05-07T11:03:03.543Z,31.94
2023-05-07T11:06:12.220Z,32.23
2023-05-07T11:09:00.750Z,32.45
2023-05-07T11:11:52.223Z,32.24
2023-05-07T11:14:46.767Z,32.18
2023-05-07T11:17:37.388Z,32.71
2023-05-07T11:20:52.065Z,32.81
2023-05-07T11:24:00.036Z,33.21
2023-05-07T11:26:51.131Z,33.08
2023-05-07T11:29:39.242Z,33.26
2023-05-07T11:32:30.849Z,33.23
2023-05-07T11:35:19.314Z,33.53
2023-05-07T11:38:07.573Z,33.92
2023-05-07T11:40:57.126Z,33.98
2023-05-07T11:44:01.637Z,34.03
2023-05-07T11:46:53.520Z,34.13
2023-05-07T11:49:41.701Z,34.09
2023-05-07T11:52:29.486Z,33.98
2023-05-07T11:55:21.266Z,33.94
2023-05-07T11:58:10.709Z,33.83
2023-05-07T12:01:00.165Z,33.73
2023-05-07T12:03:48.778Z,33.57
2023-05-07T12:06:39.949Z,33.46
2023-05-07T12:09:27.873Z,32.66
2023-05-07T12:12:16.587Z,32.86
2023-05-07T12:15:04.789Z,32.70
2023-05-07T12:17:54.113Z,32.50
2023-05-07T12:20:43.049Z,32.35
2023-05-07T12:23:31.350Z,32.26
2023-05-07T12:26:21.707Z,31.94
2023-05-07T12:29:09.826Z,31.85
2023-05-07T12:31:57.741Z,32.12
2023-05-07T12:34:47.937Z,31.20
2023-05-07T12:37:37.538Z,31.35
2023-05-07T12:40:25.437Z,31.28
2023-05-07T12:43:19.170Z,31.67
2023-05-07T12:46:08.315Z,31.54
2023-05-07T12:48:56.731Z,31.98
2023-05-07T12:51:46.274Z,31.48
2023-05-07T12:54:35.429Z,30.92
2023-05-07T12:57:23.489Z,31.77
2023-05-07T13:00:12.641Z,32.06
2023-05-07T13:03:01.553Z,32.35
2023-05-07T13:05:49.606Z,32.75
2023-05-07T13:08:41.411Z,33.06
2023-05-07T13:11:29.159Z,32.83
2023-05-07T13:14:17.057Z,33.22
2023-05-07T13:17:04.917Z,33.32
2023-05-07T13:19:52.884Z,33.03
2023-05-07T13:22:41.288Z,32.87
2023-05-07T13:25:30.697Z,32.90
2023-05-07T13:28:18.918Z,33.07
2023-05-07T13:31:06.599Z,33.03
2023-05-07T13:33:54.767Z,33.01
2023-05-07T13:36:43.031Z,33.05
2023-05-07T13:39:30.841Z,32.62
2023-05-07T13:42:20.595Z,32.59
2023-05-07T13:45:09.633Z,32.19
2023-05-07T13:47:59.404Z,31.94
2023-05-07T13:50:47.414Z,32.13
2023-05-07T13:53:35.010Z,32.12
2023-05-07T13:56:24.081Z,31.68
2023-05-07T13:59:15.302Z,31.67
2023-05-07T14:02:03.307Z,31.42
2023-05-07T14:04:51.265Z,30.93
2023-05-07T14:07:39.368Z,30.38
2023-05-07T14:10:27.562Z,30.34
2023-05-07T14:13:15.825Z,30.68
2023-05-07T14:16:06.489Z,30.65
2023-05-07T14:18:57.828Z,31.01
2023-05-07T14:21:46.352Z,31.29
2023-05-07T14:24:38.664Z,31.37
2023-05-07T14:27:28.908Z,31.17
2023-05-07T14:30:21.293Z,30.68
2023-05-07T14:33:10.274Z,30.79
2023-05-07T14:35:58.165Z,31.18
2023-05-07T14:38:46.504Z,31.05
2023-05-07T14:41:34.389Z,30.99
2023-05-07T14:44:22.410Z,30.97
2023-05-07T14:47:10.662Z,30.58
2023-05-07T14:50:02.105Z,30.87
2023-05-07T14:52:50.403Z,30.84
2023-05-07T14:55:38.357Z,31.03
2023-05-07T14:58:26.375Z,31.09
2023-05-07T15:01:14.671Z,31.26
2023-05-07T15:04:03.292Z,31.32
2023-05-07T15:06:53.203Z,31.12
2023-05-07T15:09:41.004Z,31.30
2023-05-07T15:12:29.169Z,31.01
2023-05-07T15:15:17.398Z,30.99
2023-05-07T15:18:07.975Z,30.98
2023-05-07T15:20:57.926Z,30.92
2023-05-07T15:23:54.166Z,30.79
2023-05-07T15:26:41.856Z,30.59
2023-05-07T15:29:30.030Z,30.51
2023-05-07T15:32:17.908Z,30.36
2023-05-07T15:35:06.769Z,30.14
2023-05-07T15:37:54.668Z,30.03
2023-05-07T15:40:43.963Z,30.00
2023-05-07T15:43:32.272Z,29.75
2023-05-07T15:46:21.507Z,29.72
2023-05-07T15:49:09.984Z,29.68
2023-05-07T15:51:58.116Z,29.42
2023-05-07T15:54:45.912Z,29.30
2023-05-07T15:57:35.135Z,29.12
2023-05-07T16:00:23.477Z,28.96
2023-05-07T16:03:11.683Z,28.84
2023-05-07T16:06:00.861Z,28.78
2023-05-07T16:08:49.038Z,28.70
2023-05-07T16:11:36.719Z,28.33
2023-05-07T16:14:26.180Z,28.21
2023-05-07T16:17:13.970Z,27.92
2023-05-07T16:20:02.189Z,27.96
2023-05-07T16:22:49.840Z,27.96
2023-05-07T16:25:38.082Z,27.87
2023-05-07T16:28:27.782Z,27.75
2023-05-07T16:31:17.262Z,27.66
2023-05-07T16:34:05.282Z,27.55
2023-05-07T16:36:53.275Z,27.23
2023-05-07T16:39:41.306Z,27.13
2023-05-07T16:42:29.695Z,27.04
2023-05-07T16:45:18.701Z,26.83
2023-05-07T16:48:08.723Z,26.64
2023-05-07T16:50:56.673Z,26.48
2023-05-07T16:53:44.707Z,26.34
2023-05-07T16:56:32.756Z,26.27
2023-05-07T16:59:20.929Z,26.13
2023-05-07T17:02:09.080Z,26.01
2023-05-07T17:04:58.397Z,25.82
2023-05-07T17:07:46.842Z,25.48
2023-05-07T17:10:35.053Z,25.37
2023-05-07T17:13:24.683Z,25.08
2023-05-07T17:16:12.980Z,24.92
2023-05-07T17:19:01.270Z,24.74
2023-05-07T17:21:50.670Z,24.64
2023-05-07T17:24:40.876Z,24.53
2023-05-07T17:27:28.853Z,24.25
2023-05-07T17:30:16.890Z,23.90
2023-05-07T17:33:19.441Z,23.84
2023-05-07T17:36:08.711Z,23.80
2023-05-07T17:39:01.484Z,23.65
2023-05-07T17:41:49.712Z,23.46
2023-05-07T17:44:37.726Z,23.54
2023-05-07T17:47:28.241Z,23.38
2023-05-07T17:50:16.613Z,23.16
2023-05-07T17:53:05.883Z,22.76
2023-05-07T17:55:55.695Z,22.60
2023-05-07T17:58:58.173Z,22.28
2023-05-07T18:01:46.962Z,22.12
2023-05-07T18:04:35.101Z,22.00
2023-05-07T18:07:23.035Z,21.71
2023-05-07T18:10:12.300Z,21.73
2023-05-07T18:13:01.684Z,21.38
2023-05-07T18:15:49.809Z,21.61
2023-05-07T18:18:37.873Z,21.28
2023-05-07T18:21:25.648Z,21.23
2023-05-07T18:24:13.906Z,21.37
2023-05-07T18:27:01.958Z,21.35
2023-05-07T18:29:51.129Z,21.28
2023-05-07T18:32:39.050Z,21.18
2023-05-07T18:35:26.973Z,21.05
2023-05-07T18:38:14.940Z,20.88
2023-05-07T18:41:04.300Z,20.75
2023-05-07T18:43:52.183Z,20.43
2023-05-07T18:46:41.906Z,20.57
2023-05-07T18:49:29.749Z,20.56
2023-05-07T18:52:21.196Z,20.38
2023-05-07T18:55:11.107Z,19.59
2023-05-07T18:57:59.125Z,19.52
2023-05-07T19:00:47.429Z,19.68
2023-05-07T19:03:37.109Z,19.54
2023-05-07T19:06:25.798Z,19.52
2023-05-07T19:09:14.509Z,19.34
2023-05-07T19:12:02.355Z,19.29
2023-05-07T19:14:50.262Z,19.43
2023-05-07T19:17:38.467Z,19.18
2023-05-07T19:20:28.150Z,19.15
2023-05-07T19:23:15.975Z,18.77
2023-05-07T19:26:04.154Z,18.58
2023-05-07T19:29:06.686Z,18.68
2023-05-07T19:32:00.602Z,18.58
2023-05-07T19:34:48.652Z,18.72
2023-05-07T19:37:37.849Z,18.73
2023-05-07T19:40:26.181Z,18.66
2023-05-07T19:43:14.110Z,18.71
2023-05-07T19:46:02.185Z,18.56
2023-05-07T19:48:50.590Z,18.49
2023-05-07T19:51:38.439Z,18.32
2023-05-07T19:54:27.898Z,18.33
2023-05-07T19:57:17.666Z,18.32
2023-05-07T20:00:06.856Z,18.33
2023-05-07T20:02:54.698Z,18.26
2023-05-07T20:05:42.554Z,18.16
2023-05-07T20:08:31.116Z,18.12
2023-05-07T20:11:21.604Z,18.01
2023-05-07T20:14:10.078Z,17.94
2023-05-07T20:16:57.842Z,17.96
2023-05-07T20:19:45.832Z,17.90
2023-05-07T20:22:34.037Z,17.82
2023-05-07T20:25:22.272Z,17.77
2023-05-07T20:28:11.951Z,17.69
2023-05-07T20:30:59.844Z,17.52
2023-05-07T20:33:47.651Z,17.50
2023-05-07T20:36:36.003Z,17.51
2023-05-07T20:39:29.085Z,17.40
2023-05-07T20:42:16.945Z,17.30
2023-05-07T20:45:06.831Z,17.21
2023-05-07T20:47:54.835Z,17.19
2023-05-07T20:50:42.845Z,17.14
2023-05-07T20:53:31.850Z,17.00
2023-05-07T20:56:20.028Z,16.75
2023-05-07T20:59:07.996Z,16.54
2023-05-07T21:01:57.419Z,16.62
2023-05-07T21:04:45.954Z,16.51
2023-05-07T21:07:33.853Z,16.58
2023-05-07T21:10:21.915Z,16.26
2023-05-07T21:13:10.023Z,16.23
2023-05-07T21:15:58.182Z,16.22
2023-05-07T21:18:47.713Z,16.22
2023-05-07T21:21:37.974Z,16.14
2023-05-07T21:24:26.095Z,16.08
2023-05-07T21:27:14.075Z,16.14
2023-05-07T21:30:04.662Z,16.05
2023-05-07T21:32:55.434Z,15.95
2023-05-07T21:35:44.815Z,15.91
2023-05-07T21:38:32.535Z,15.94
2023-05-07T21:41:20.885Z,15.90
2023-05-07T21:44:08.957Z,15.94
2023-05-07T21:46:57.036Z,15.99
2023-05-07T21:49:45.041Z,15.98
2023-05-07T21:52:34.373Z,15.89
2023-05-07T21:55:22.485Z,15.76
2023-05-07T21:58:10.300Z,15.68
2023-05-07T22:00:58.530Z,15.60
2023-05-07T22:03:46.980Z,15.57
2023-05-07T22:06:34.619Z,15.56
2023-05-07T22:09:23.897Z,15.50
2023-05-07T22:12:11.730Z,15.47
2023-05-07T22:14:59.717Z,15.39
2023-05-07T22:17:47.819Z,15.37
2023-05-07T22:20:38.926Z,15.43
2023-05-07T22:23:26.947Z,15.38
2023-05-07T22:26:16.643Z,15.35
2023-05-07T22:29:04.744Z,15.34
2023-05-07T22:31:52.757Z,15.30
2023-05-07T22:34:40.549Z,15.26
2023-05-07T22:37:28.534Z,15.16
2023-05-07T22:40:16.820Z,15.14
2023-05-07T22:43:08.679Z,15.05
2023-05-07T22:46:00.997Z,14.96
2023-05-07T22:48:48.764Z,14.87
2023-05-07T22:51:37.078Z,14.87
2023-05-07T22:54:25.655Z,14.85
2023-05-07T22:57:13.398Z,14.79
2023-05-07T23:00:03.309Z,14.75
2023-05-07T23:02:51.522Z,14.73
2023-05-07T23:05:40.453Z,14.68
2023-05-07T23:08:27.993Z,14.65
2023-05-07T23:11:15.941Z,14.60
2023-05-07T23:14:04.060Z,14.52
2023-05-07T23:16:55.951Z,14.49
2023-05-07T23:19:45.227Z,14.43
2023-05-07T23:22:33.281Z,14.38
2023-05-07T23:25:21.497Z,14.27
2023-05-07T23:28:09.253Z,14.17
2023-05-07T23:31:00.178Z,14.13
2023-05-07T23:33:49.632Z,14.06
2023-05-07T23:36:40.014Z,14.02
2023-05-07T23:39:27.900Z,13.96
2023-05-07T23:42:16.866Z,13.91
2023-05-07T23:45:05.494Z,13.81
2023-05-07T23:47:53.342Z,13.78
2023-05-07T23:50:42.710Z,13.70
2023-05-07T23:53:30.721Z,13.67
2023-05-07T23:56:18.804Z,13.57
2023-05-07T23:59:06.440Z,13.53
